sensor_id;sensor_type;location;lat;lon;timestamp;pressure;altitude;pressure_sealevel;temperature;humidity
46614;BME280;32338;50.430;6.806;2023-02-28T00:01:22;65131.91;;;-2.70;100.00
46614;BME280;32338;50.430;6.806;2023-02-28T00:03:50;65127.31;;;-2.70;100.00
46614;BME280;32338;50.430;6.806;2023-02-28T00:06:17;65127.66;;;-2.72;100.00
46614;BME280;32338;50.430;6.806;2023-02-28T00:08:44;65133.78;;;-2.66;100.00
46614;BME280;32338;50.430;6.806;2023-02-28T00:11:13;65128.00;;;-2.74;100.00
46614;BME280;32338;50.430;6.806;2023-02-28T00:13:42;65121.75;;;-2.75;100.00
46614;BME280;32338;50.430;6.806;2023-02-28T00:16:13;65118.41;;;-2.78;100.00
46614;BME280;32338;50.430;6.806;2023-02-28T00:18:41;65112.63;;;-2.86;100.00
46614;BME280;32338;50.430;6.806;2023-02-28T00:21:09;65109.31;;;-2.89;100.00
46614;BME280;32338;50.430;6.806;2023-02-28T00:23:35;65106.75;;;-2.89;100.00
46614;BME280;32338;50.430;6.806;2023-02-28T00:26:03;65105.94;;;-2.92;100.00
46614;BME280;32338;50.430;6.806;2023-02-28T00:28:29;65107.63;;;-2.90;100.00
46614;BME280;32338;50.430;6.806;2023-02-28T00:30:56;65100.06;;;-2.95;100.00
46614;BME280;32338;50.430;6.806;2023-02-28T00:33:25;65110.63;;;-2.85;100.00
46614;BME280;32338;50.430;6.806;2023-02-28T00:35:52;65102.97;;;-2.97;100.00
46614;BME280;32338;50.430;6.806;2023-02-28T00:38:20;65097.94;;;-3.02;100.00
46614;BME280;32338;50.430;6.806;2023-02-28T00:40:46;65083.13;;;-3.13;100.00
46614;BME280;32338;50.430;6.806;2023-02-28T00:43:13;65080.72;;;-3.18;100.00
46614;BME280;32338;50.430;6.806;2023-02-28T00:45:39;65081.47;;;-3.15;100.00
46614;BME280;32338;50.430;6.806;2023-02-28T00:48:06;65077.94;;;-3.20;100.00
46614;BME280;32338;50.430;6.806;2023-02-28T00:50:33;65069.47;;;-3.23;100.00
46614;BME280;32338;50.430;6.806;2023-02-28T00:52:59;65076.25;;;-3.22;100.00
46614;BME280;32338;50.430;6.806;2023-02-28T00:55:27;65065.91;;;-3.29;100.00
46614;BME280;32338;50.430;6.806;2023-02-28T00:57:54;65053.09;;;-3.41;100.00
46614;BME280;32338;50.430;6.806;2023-02-28T01:00:21;65045.75;;;-3.43;100.00
46614;BME280;32338;50.430;6.806;2023-02-28T01:02:47;65040.75;;;-3.48;100.00
46614;BME280;32338;50.430;6.806;2023-02-28T01:05:14;65043.66;;;-3.50;100.00
46614;BME280;32338;50.430;6.806;2023-02-28T01:07:40;65037.75;;;-3.53;100.00
46614;BME280;32338;50.430;6.806;2023-02-28T01:10:08;65037.75;;;-3.53;100.00
46614;BME280;32338;50.430;6.806;2023-02-28T01:12:36;65039.22;;;-3.54;100.00
46614;BME280;32338;50.430;6.806;2023-02-28T01:15:04;65034.63;;;-3.53;100.00
46614;BME280;32338;50.430;6.806;2023-02-28T01:17:30;65040.66;;;-3.55;100.00
46614;BME280;32338;50.430;6.806;2023-02-28T01:19:57;65038.09;;;-3.55;100.00
46614;BME280;32338;50.430;6.806;2023-02-28T01:22:24;65033.88;;;-3.56;100.00
46614;BME280;32338;50.430;6.806;2023-02-28T01:24:50;65040.44;;;-3.58;100.00
46614;BME280;32338;50.430;6.806;2023-02-28T01:27:17;65038.44;;;-3.57;100.00
46614;BME280;32338;50.430;6.806;2023-02-28T01:29:45;65029.63;;;-3.58;100.00
46614;BME280;32338;50.430;6.806;2023-02-28T01:32:12;65030.88;;;-3.62;100.00
46614;BME280;32338;50.430;6.806;2023-02-28T01:34:38;65032.31;;;-3.63;100.00
46614;BME280;32338;50.430;6.806;2023-02-28T01:37:05;65030.09;;;-3.65;100.00
46614;BME280;32338;50.430;6.806;2023-02-28T01:39:32;65023.31;;;-3.66;100.00
46614;BME280;32338;50.430;6.806;2023-02-28T01:41:58;65030.66;;;-3.64;100.00
46614;BME280;32338;50.430;6.806;2023-02-28T01:45:06;65025.06;;;-3.69;100.00
46614;BME280;32338;50.430;6.806;2023-02-28T01:47:37;65023.41;;;-3.71;100.00
46614;BME280;32338;50.430;6.806;2023-02-28T01:50:08;65008.63;;;-3.82;100.00
46614;BME280;32338;50.430;6.806;2023-02-28T01:52:36;65006.75;;;-3.86;100.00
46614;BME280;32338;50.430;6.806;2023-02-28T01:55:05;64995.28;;;-3.95;100.00
46614;BME280;32338;50.430;6.806;2023-02-28T01:57:36;64986.41;;;-4.03;100.00
46614;BME280;32338;50.430;6.806;2023-02-28T02:00:08;64993.41;;;-3.99;100.00
46614;BME280;32338;50.430;6.806;2023-02-28T02:02:36;64986.06;;;-4.01;100.00
46614;BME280;32338;50.430;6.806;2023-02-28T02:05:05;64986.72;;;-4.05;100.00
46614;BME280;32338;50.430;6.806;2023-02-28T02:07:35;64983.28;;;-4.03;100.00
46614;BME280;32338;50.430;6.806;2023-02-28T02:10:06;64977.50;;;-4.11;100.00
46614;BME280;32338;50.430;6.806;2023-02-28T02:12:52;64967.72;;;-4.18;100.00
46614;BME280;32338;50.430;6.806;2023-02-28T02:15:26;64966.03;;;-4.19;100.00
46614;BME280;32338;50.430;6.806;2023-02-28T02:18:01;64965.06;;;-4.25;100.00
46614;BME280;32338;50.430;6.806;2023-02-28T02:24:10;64954.16;;;-4.33;100.00
46614;BME280;32338;50.430;6.806;2023-02-28T02:26:55;64946.38;;;-4.40;100.00
46614;BME280;32338;50.430;6.806;2023-02-28T02:29:47;64944.72;;;-4.42;100.00
46614;BME280;32338;50.430;6.806;2023-02-28T02:32:34;64947.50;;;-4.39;100.00
46614;BME280;32338;50.430;6.806;2023-02-28T02:35:15;64956.16;;;-4.33;100.00
46614;BME280;32338;50.430;6.806;2023-02-28T02:37:49;64945.25;;;-4.41;100.00
46614;BME280;32338;50.430;6.806;2023-02-28T02:40:18;64933.25;;;-4.50;100.00
46614;BME280;32338;50.430;6.806;2023-02-28T02:42:51;64926.38;;;-4.59;100.00
46614;BME280;32338;50.430;6.806;2023-02-28T02:45:24;64926.94;;;-4.58;100.00
46614;BME280;32338;50.430;6.806;2023-02-28T02:47:53;64924.16;;;-4.61;100.00
46614;BME280;32338;50.430;6.806;2023-02-28T02:50:25;64921.25;;;-4.59;100.00
46614;BME280;32338;50.430;6.806;2023-02-28T02:52:58;64923.06;;;-4.62;100.00
46614;BME280;32338;50.430;6.806;2023-02-28T02:55:26;64914.16;;;-4.70;100.00
46614;BME280;32338;50.430;6.806;2023-02-28T03:15:18;64904.16;;;-4.79;100.00
46614;BME280;32338;50.430;6.806;2023-02-28T03:17:55;64887.16;;;-4.93;100.00
46614;BME280;32338;50.430;6.806;2023-02-28T03:20:40;64890.50;;;-4.90;100.00
46614;BME280;32338;50.430;6.806;2023-02-28T03:23:17;64884.72;;;-4.97;100.00
46614;BME280;32338;50.430;6.806;2023-02-28T03:25:55;64881.06;;;-4.98;100.00
46614;BME280;32338;50.430;6.806;2023-02-28T03:28:30;64880.63;;;-5.03;100.00
46614;BME280;32338;50.430;6.806;2023-02-28T06:02:14;64763.53;;;-6.12;100.00
46614;BME280;32338;50.430;6.806;2023-02-28T06:04:41;64752.00;;;-6.16;100.00
46614;BME280;32338;50.430;6.806;2023-02-28T06:07:08;64752.13;;;-6.21;100.00
46614;BME280;32338;50.430;6.806;2023-02-28T06:09:36;64756.78;;;-6.14;100.00
46614;BME280;32338;50.430;6.806;2023-02-28T06:12:04;64757.44;;;-6.18;100.00
46614;BME280;32338;50.430;6.806;2023-02-28T06:14:33;64751.56;;;-6.21;100.00
46614;BME280;32338;50.430;6.806;2023-02-28T06:17:00;64749.34;;;-6.23;100.00
46614;BME280;32338;50.430;6.806;2023-02-28T06:19:29;64751.34;;;-6.24;100.00
46614;BME280;32338;50.430;6.806;2023-02-28T06:21:56;64744.13;;;-6.30;100.00
46614;BME280;32338;50.430;6.806;2023-02-28T06:24:25;64756.09;;;-6.22;100.00
46614;BME280;32338;50.430;6.806;2023-02-28T06:26:53;64745.25;;;-6.29;100.00
46614;BME280;32338;50.430;6.806;2023-02-28T06:29:20;64739.34;;;-6.32;100.00
46614;BME280;32338;50.430;6.806;2023-02-28T06:31:46;64738.03;;;-6.36;100.00
46614;BME280;32338;50.430;6.806;2023-02-28T06:34:14;64734.13;;;-6.40;100.00
46614;BME280;32338;50.430;6.806;2023-02-28T06:36:42;64729.03;;;-6.40;100.00
46614;BME280;32338;50.430;6.806;2023-02-28T06:39:09;64731.59;;;-6.40;100.00
46614;BME280;32338;50.430;6.806;2023-02-28T06:41:36;64740.47;;;-6.31;100.00
46614;BME280;32338;50.430;6.806;2023-02-28T06:44:03;64743.25;;;-6.29;100.00
46614;BME280;32338;50.430;6.806;2023-02-28T06:46:31;64753.56;;;-6.22;100.00
46614;BME280;32338;50.430;6.806;2023-02-28T06:48:58;64747.88;;;-6.22;100.00
46614;BME280;32338;50.430;6.806;2023-02-28T06:51:24;64766.19;;;-6.05;100.00
46614;BME280;32338;50.430;6.806;2023-02-28T06:53:53;64764.31;;;-6.09;100.00
46614;BME280;32338;50.430;6.806;2023-02-28T06:56:20;64776.84;;;-6.00;100.00
46614;BME280;32338;50.430;6.806;2023-02-28T06:58:47;64768.75;;;-6.05;100.00
46614;BME280;32338;50.430;6.806;2023-02-28T07:01:14;64773.53;;;-6.03;100.00
46614;BME280;32338;50.430;6.806;2023-02-28T07:03:41;64772.31;;;-5.99;100.00
46614;BME280;32338;50.430;6.806;2023-02-28T07:06:08;64788.16;;;-5.87;100.00
46614;BME280;32338;50.430;6.806;2023-02-28T07:08:35;64796.13;;;-5.77;100.00
46614;BME280;32338;50.430;6.806;2023-02-28T07:11:04;64804.22;;;-5.72;100.00
46614;BME280;32338;50.430;6.806;2023-02-28T07:13:31;64819.88;;;-5.62;100.00
46614;BME280;32338;50.430;6.806;2023-02-28T07:16:00;64821.78;;;-5.58;100.00
46614;BME280;32338;50.430;6.806;2023-02-28T07:18:27;64827.66;;;-5.55;100.00
46614;BME280;32338;50.430;6.806;2023-02-28T07:20:54;64829.31;;;-5.54;100.00
46614;BME280;32338;50.430;6.806;2023-02-28T07:23:21;64830.88;;;-5.47;100.00
46614;BME280;32338;50.430;6.806;2023-02-28T07:25:49;64838.97;;;-5.42;100.00
46614;BME280;32338;50.430;6.806;2023-02-28T07:28:17;64853.09;;;-5.27;100.00
46614;BME280;32338;50.430;6.806;2023-02-28T07:30:44;64860.63;;;-5.22;100.00
46614;BME280;32338;50.430;6.806;2023-02-28T07:33:11;64868.06;;;-5.13;100.00
46614;BME280;32338;50.430;6.806;2023-02-28T07:35:38;64873.06;;;-5.08;100.00
46614;BME280;32338;50.430;6.806;2023-02-28T07:38:04;64878.06;;;-5.03;100.00
46614;BME280;32338;50.430;6.806;2023-02-28T07:40:32;64883.06;;;-4.99;100.00
46614;BME280;32338;50.430;6.806;2023-02-28T07:42:59;64889.50;;;-4.95;100.00
46614;BME280;32338;50.430;6.806;2023-02-28T07:45:28;64892.50;;;-4.90;100.00
46614;BME280;32338;50.430;6.806;2023-02-28T07:47:57;64900.81;;;-4.82;100.00
46614;BME280;32338;50.430;6.806;2023-02-28T07:50:23;64914.94;;;-4.67;100.00
46614;BME280;32338;50.430;6.806;2023-02-28T07:52:50;64915.72;;;-4.64;100.00
46614;BME280;32338;50.430;6.806;2023-02-28T07:55:17;64927.28;;;-4.60;100.00
46614;BME280;32338;50.430;6.806;2023-02-28T07:57:43;64935.06;;;-4.53;100.00
46614;BME280;32338;50.430;6.806;2023-02-28T08:00:12;64935.16;;;-4.46;100.00
46614;BME280;32338;50.430;6.806;2023-02-28T08:02:40;64950.06;;;-4.39;100.00
46614;BME280;32338;50.430;6.806;2023-02-28T08:05:07;64963.72;;;-4.29;100.00
46614;BME280;32338;50.430;6.806;2023-02-28T08:07:34;64969.50;;;-4.21;100.00
46614;BME280;32338;50.430;6.806;2023-02-28T08:10:00;64978.94;;;-4.12;100.00
46614;BME280;32338;50.430;6.806;2023-02-28T08:12:27;64985.84;;;-4.03;100.00
46614;BME280;32338;50.430;6.806;2023-02-28T08:14:53;65001.94;;;-3.88;100.00
46614;BME280;32338;50.430;6.806;2023-02-28T08:17:20;65007.72;;;-3.81;100.00
46614;BME280;32338;50.430;6.806;2023-02-28T08:19:48;65016.75;;;-3.77;100.00
46614;BME280;32338;50.430;6.806;2023-02-28T08:22:15;65026.97;;;-3.65;100.00
46614;BME280;32338;50.430;6.806;2023-02-28T08:24:42;65033.31;;;-3.57;100.00
46614;BME280;32338;50.430;6.806;2023-02-28T08:27:09;65053.44;;;-3.43;100.00
46614;BME280;32338;50.430;6.806;2023-02-28T08:29:36;65051.44;;;-3.43;100.00
46614;BME280;32338;50.430;6.806;2023-02-28T08:32:03;65060.00;;;-3.32;100.00
46614;BME280;32338;50.430;6.806;2023-02-28T08:34:30;65078.81;;;-3.22;100.00
46614;BME280;32338;50.430;6.806;2023-02-28T08:36:58;65088.69;;;-3.08;100.00
46614;BME280;32338;50.430;6.806;2023-02-28T08:39:25;65102.06;;;-2.96;100.00
46614;BME280;32338;50.430;6.806;2023-02-28T08:41:52;65103.16;;;-2.95;100.00
46614;BME280;32338;50.430;6.806;2023-02-28T08:44:19;65115.41;;;-2.83;100.00
46614;BME280;32338;50.430;6.806;2023-02-28T08:46:45;65130.22;;;-2.72;100.00
46614;BME280;32338;50.430;6.806;2023-02-28T08:49:12;65127.66;;;-2.72;100.00
46614;BME280;32338;50.430;6.806;2023-02-28T08:51:39;65136.56;;;-2.64;100.00
46614;BME280;32338;50.430;6.806;2023-02-28T08:54:10;65139.34;;;-2.61;100.00
46614;BME280;32338;50.430;6.806;2023-02-28T08:56:38;65148.59;;;-2.55;100.00
46614;BME280;32338;50.430;6.806;2023-02-28T08:59:05;65157.72;;;-2.44;100.00
46614;BME280;32338;50.430;6.806;2023-02-28T09:01:32;65170.31;;;-2.35;100.00
46614;BME280;32338;50.430;6.806;2023-02-28T09:03:59;65180.88;;;-2.25;100.00
46614;BME280;32338;50.430;6.806;2023-02-28T09:06:28;65173.63;;;-2.32;100.00
46614;BME280;32338;50.430;6.806;2023-02-28T09:08:56;65155.16;;;-2.44;100.00
46614;BME280;32338;50.430;6.806;2023-02-28T09:11:26;65159.41;;;-2.42;100.00
46614;BME280;32338;50.430;6.806;2023-02-28T09:13:54;65153.03;;;-2.51;100.00
46614;BME280;32338;50.430;6.806;2023-02-28T09:16:21;65168.84;;;-2.34;100.00
46614;BME280;32338;50.430;6.806;2023-02-28T09:18:48;65178.88;;;-2.24;100.00
46614;BME280;32338;50.430;6.806;2023-02-28T09:21:18;65180.19;;;-2.21;100.00
46614;BME280;32338;50.430;6.806;2023-02-28T09:23:46;65175.53;;;-2.28;100.00
46614;BME280;32338;50.430;6.806;2023-02-28T09:26:14;65179.44;;;-2.24;100.00
46614;BME280;32338;50.430;6.806;2023-02-28T09:28:42;65181.66;;;-2.22;100.00
46614;BME280;32338;50.430;6.806;2023-02-28T09:31:13;65174.09;;;-2.26;100.00
46614;BME280;32338;50.430;6.806;2023-02-28T09:33:39;65185.66;;;-2.23;100.00
46614;BME280;32338;50.430;6.806;2023-02-28T09:36:06;65178.88;;;-2.24;100.00
46614;BME280;32338;50.430;6.806;2023-02-28T09:38:33;65186.25;;;-2.22;100.00
46614;BME280;32338;50.430;6.806;2023-02-28T09:41:02;65177.97;;;-2.23;100.00
46614;BME280;32338;50.430;6.806;2023-02-28T09:43:34;65196.13;;;-2.08;100.00
46614;BME280;32338;50.430;6.806;2023-02-28T09:46:10;65201.69;;;-2.03;100.00
46614;BME280;32338;50.430;6.806;2023-02-28T09:48:43;65199.91;;;-2.00;100.00
46614;BME280;32338;50.430;6.806;2023-02-28T09:51:20;65226.41;;;-1.78;100.00
46614;BME280;32338;50.430;6.806;2023-02-28T09:53:50;65236.25;;;-1.71;100.00
46614;BME280;32338;50.430;6.806;2023-02-28T09:56:21;65268.00;;;-1.42;100.00
46614;BME280;32338;50.430;6.806;2023-02-28T09:58:55;65282.63;;;-1.33;100.00
46614;BME280;32338;50.430;6.806;2023-02-28T10:01:29;65294.19;;;-1.18;100.00
46614;BME280;32338;50.430;6.806;2023-02-28T10:04:04;65308.91;;;-1.02;100.00
46614;BME280;32338;50.430;6.806;2023-02-28T10:06:40;65314.81;;;-0.99;100.00
46614;BME280;32338;50.430;6.806;2023-02-28T10:09:14;65322.63;;;-0.91;100.00
46614;BME280;32338;50.430;6.806;2023-02-28T10:11:42;65323.53;;;-0.93;100.00
46614;BME280;32338;50.430;6.806;2023-02-28T10:14:13;65328.97;;;-0.83;100.00
46614;BME280;32338;50.430;6.806;2023-02-28T10:16:45;65328.75;;;-0.86;100.00
46614;BME280;32338;50.430;6.806;2023-02-28T10:19:17;65329.53;;;-0.83;100.00
46614;BME280;32338;50.430;6.806;2023-02-28T10:21:50;65354.75;;;-0.64;100.00
46614;BME280;32338;50.430;6.806;2023-02-28T10:24:29;65348.84;;;-0.67;100.00
46614;BME280;32338;50.430;6.806;2023-02-28T10:26:58;65370.59;;;-0.47;100.00
46614;BME280;32338;50.430;6.806;2023-02-28T10:29:26;65371.00;;;-0.42;99.67
46614;BME280;32338;50.430;6.806;2023-02-28T10:31:56;65395.47;;;-0.26;100.00
46614;BME280;32338;50.430;6.806;2023-02-28T10:34:24;65383.97;;;-0.35;100.00
46614;BME280;32338;50.430;6.806;2023-02-28T10:36:51;65387.66;;;-0.34;100.00
46614;BME280;32338;50.430;6.806;2023-02-28T10:39:37;65395.91;;;-0.21;97.10
46614;BME280;32338;50.430;6.806;2023-02-28T10:42:04;65388.63;;;-0.28;92.11
46614;BME280;32338;50.430;6.806;2023-02-28T10:44:31;65394.56;;;-0.25;92.05
46614;BME280;32338;50.430;6.806;2023-02-28T10:46:59;65389.34;;;-0.32;94.05
46614;BME280;32338;50.430;6.806;2023-02-28T10:49:27;65368.00;;;-0.47;91.44
46614;BME280;32338;50.430;6.806;2023-02-28T10:51:56;65357.97;;;-0.56;89.49
46614;BME280;32338;50.430;6.806;2023-02-28T10:54:27;65353.28;;;-0.63;93.71
46614;BME280;32338;50.430;6.806;2023-02-28T10:57:17;65335.13;;;-0.77;99.07
46614;BME280;32338;50.430;6.806;2023-02-28T10:59:44;65337.91;;;-0.75;93.42
46614;BME280;32338;50.430;6.806;2023-02-28T11:02:40;65367.78;;;-0.50;100.00
46614;BME280;32338;50.430;6.806;2023-02-28T11:07:51;65395.56;;;-0.19;96.20
46614;BME280;32338;50.430;6.806;2023-02-28T11:10:20;65404.59;;;-0.15;90.66
46614;BME280;32338;50.430;6.806;2023-02-28T11:12:49;65406.84;;;-0.13;94.38
46614;BME280;32338;50.430;6.806;2023-02-28T11:15:22;65401.47;;;-0.16;94.37
46614;BME280;32338;50.430;6.806;2023-02-28T11:17:57;65391.78;;;-0.27;83.00
46614;BME280;32338;50.430;6.806;2023-02-28T11:20:28;65395.47;;;-0.26;92.64
46614;BME280;32338;50.430;6.806;2023-02-28T11:22:56;65393.66;;;-0.23;92.79
46614;BME280;32338;50.430;6.806;2023-02-28T11:25:25;65451.13;;;0.30;99.02
46614;BME280;32338;50.430;6.806;2023-02-28T11:27:54;65505.28;;;0.80;100.00
46614;BME280;32338;50.430;6.806;2023-02-28T11:30:33;65544.53;;;1.11;93.40
46614;BME280;32338;50.430;6.806;2023-02-28T11:33:20;65588.31;;;1.54;96.16
46614;BME280;32338;50.430;6.806;2023-02-28T11:35:49;65613.34;;;1.82;94.40
46614;BME280;32338;50.430;6.806;2023-02-28T11:38:16;65598.03;;;1.66;79.44
46614;BME280;32338;50.430;6.806;2023-02-28T11:40:48;65625.75;;;1.89;88.13
46614;BME280;32338;50.430;6.806;2023-02-28T11:43:27;65618.28;;;1.80;72.58
46614;BME280;32338;50.430;6.806;2023-02-28T11:46:09;65564.84;;;1.33;78.24
46614;BME280;32338;50.430;6.806;2023-02-28T11:48:46;65563.38;;;1.34;72.42
46614;BME280;32338;50.430;6.806;2023-02-28T11:51:21;65607.66;;;1.70;81.81
46614;BME280;32338;50.430;6.806;2023-02-28T11:54:14;65656.31;;;2.15;76.22
46614;BME280;32338;50.430;6.806;2023-02-28T11:56:44;65620.97;;;1.87;68.44
46614;BME280;32338;50.430;6.806;2023-02-28T11:59:35;65643.09;;;2.05;78.51
46614;BME280;32338;50.430;6.806;2023-02-28T12:02:20;65650.72;;;2.09;72.21
46614;BME280;32338;50.430;6.806;2023-02-28T12:05:01;65668.28;;;2.28;74.95
46614;BME280;32338;50.430;6.806;2023-02-28T12:07:41;65633.38;;;1.93;63.75
46614;BME280;32338;50.430;6.806;2023-02-28T12:10:20;65634.50;;;1.94;68.43
46614;BME280;32338;50.430;6.806;2023-02-28T12:12:58;65616.84;;;1.81;62.05
46614;BME280;32338;50.430;6.806;2023-02-28T12:18:45;65593.13;;;1.56;72.57
46614;BME280;32338;50.430;6.806;2023-02-28T12:21:22;65547.88;;;1.15;61.53
46614;BME280;32338;50.430;6.806;2023-02-28T12:24:12;65571.00;;;1.38;69.13
46614;BME280;32338;50.430;6.806;2023-02-28T12:26:45;65610.66;;;1.75;76.77
46614;BME280;32338;50.430;6.806;2023-02-28T12:29:17;65619.63;;;1.83;72.13
46614;BME280;32338;50.430;6.806;2023-02-28T12:31:47;65675.88;;;2.33;73.55
46614;BME280;32338;50.430;6.806;2023-02-28T12:34:18;65678.00;;;2.39;63.32
46614;BME280;32338;50.430;6.806;2023-02-28T12:36:49;65699.78;;;2.59;65.20
46614;BME280;32338;50.430;6.806;2023-02-28T12:39:20;65696.78;;;2.54;60.73
46614;BME280;32338;50.430;6.806;2023-02-28T12:41:54;65793.41;;;3.41;63.31
46614;BME280;32338;50.430;6.806;2023-02-28T12:44:30;65751.28;;;3.07;62.31
46614;BME280;32338;50.430;6.806;2023-02-28T12:46:59;65781.84;;;3.33;63.56
46614;BME280;32338;50.430;6.806;2023-02-28T12:49:30;65806.69;;;3.58;67.19
46614;BME280;32338;50.430;6.806;2023-02-28T12:51:59;65792.81;;;3.40;57.03
46614;BME280;32338;50.430;6.806;2023-02-28T12:54:32;65720.63;;;2.74;55.69
46614;BME280;32338;50.430;6.806;2023-02-28T12:57:07;65670.84;;;2.28;54.67
46614;BME280;32338;50.430;6.806;2023-02-28T12:59:40;65622.06;;;1.88;57.06
46614;BME280;32338;50.430;6.806;2023-02-28T13:02:45;65583.50;;;1.52;59.18
46614;BME280;32338;50.430;6.806;2023-02-28T13:05:52;65666.56;;;2.26;64.86
46614;BME280;32338;50.430;6.806;2023-02-28T13:08:54;65700.13;;;2.57;60.18
46614;BME280;32338;50.430;6.806;2023-02-28T13:11:27;65755.75;;;3.11;62.82
46614;BME280;32338;50.430;6.806;2023-02-28T13:14:00;65817.31;;;3.68;64.21
46614;BME280;32338;50.430;6.806;2023-02-28T13:16:27;65832.03;;;3.77;61.88
46614;BME280;32338;50.430;6.806;2023-02-28T13:19:08;65808.50;;;3.55;62.70
46614;BME280;32338;50.430;6.806;2023-02-28T13:21:43;65773.25;;;3.22;52.56
46614;BME280;32338;50.430;6.806;2023-02-28T13:24:11;65801.78;;;3.49;60.82
46614;BME280;32338;50.430;6.806;2023-02-28T13:27:32;65794.56;;;3.49;55.04
46614;BME280;32338;50.430;6.806;2023-02-28T13:29:59;65731.84;;;2.84;52.77
46614;BME280;32338;50.430;6.806;2023-02-28T13:32:34;65717.69;;;2.76;54.03
46614;BME280;32338;50.430;6.806;2023-02-28T13:35:37;65735.72;;;2.88;59.38
46614;BME280;32338;50.430;6.806;2023-02-28T13:38:17;65730.34;;;2.85;52.89
46614;BME280;32338;50.430;6.806;2023-02-28T13:40:45;65749.03;;;3.05;61.13
46614;BME280;32338;50.430;6.806;2023-02-28T13:43:16;65807.03;;;3.56;59.54
46614;BME280;32338;50.430;6.806;2023-02-28T13:46:06;65835.81;;;3.85;59.58
46614;BME280;32338;50.430;6.806;2023-02-28T13:48:34;65827.00;;;3.72;54.25
46614;BME280;32338;50.430;6.806;2023-02-28T13:51:34;65780.72;;;3.32;52.57
46614;BME280;32338;50.430;6.806;2023-02-28T13:54:20;65811.16;;;3.62;53.90
46614;BME280;32338;50.430;6.806;2023-02-28T13:57:01;65799.41;;;3.51;53.87
46614;BME280;32338;50.430;6.806;2023-02-28T13:59:35;65796.91;;;3.39;56.79
46614;BME280;32338;50.430;6.806;2023-02-28T14:02:32;65835.81;;;3.85;52.41
46614;BME280;32338;50.430;6.806;2023-02-28T14:05:06;65755.88;;;3.06;51.78
46614;BME280;32338;50.430;6.806;2023-02-28T14:07:43;65905.81;;;4.49;59.59
46614;BME280;32338;50.430;6.806;2023-02-28T14:10:22;65894.06;;;4.38;53.27
46614;BME280;32338;50.430;6.806;2023-02-28T14:12:57;65860.09;;;4.10;50.57
46614;BME280;32338;50.430;6.806;2023-02-28T14:15:38;65900.22;;;4.44;53.81
46614;BME280;32338;50.430;6.806;2023-02-28T14:18:15;65866.63;;;4.13;52.86
46614;BME280;32338;50.430;6.806;2023-02-28T14:20:44;65852.41;;;3.98;51.90
46614;BME280;32338;50.430;6.806;2023-02-28T14:23:20;65814.88;;;3.63;50.26
46614;BME280;32338;50.430;6.806;2023-02-28T14:25:55;65841.19;;;3.87;51.37
46614;BME280;32338;50.430;6.806;2023-02-28T14:28:43;65793.25;;;3.46;49.34
46614;BME280;32338;50.430;6.806;2023-02-28T14:31:13;65773.25;;;3.22;52.71
46614;BME280;32338;50.430;6.806;2023-02-28T14:33:57;65801.25;;;3.48;57.32
46614;BME280;32338;50.430;6.806;2023-02-28T14:36:32;65861.91;;;4.06;56.04
46614;BME280;32338;50.430;6.806;2023-02-28T14:39:03;65888.25;;;4.31;54.57
46614;BME280;32338;50.430;6.806;2023-02-28T14:41:32;65874.44;;;4.20;54.43
46614;BME280;32338;50.430;6.806;2023-02-28T14:44:13;65923.78;;;4.66;53.90
46614;BME280;32338;50.430;6.806;2023-02-28T14:46:41;65951.56;;;4.89;53.41
46614;BME280;32338;50.430;6.806;2023-02-28T14:49:15;65843.06;;;3.92;52.68
46614;BME280;32338;50.430;6.806;2023-02-28T14:51:42;65718.81;;;2.77;49.52
46614;BME280;32338;50.430;6.806;2023-02-28T14:54:13;65825.72;;;3.76;55.77
46614;BME280;32338;50.430;6.806;2023-02-28T14:56:41;65870.88;;;4.15;57.41
46614;BME280;32338;50.430;6.806;2023-02-28T14:59:24;65876.13;;;4.22;52.72
46614;BME280;32338;50.430;6.806;2023-02-28T15:01:51;65844.53;;;3.90;53.04
46614;BME280;32338;50.430;6.806;2023-02-28T15:04:26;65931.41;;;4.70;51.83
46614;BME280;32338;50.430;6.806;2023-02-28T15:07:10;65908.63;;;4.52;49.72
46614;BME280;32338;50.430;6.806;2023-02-28T15:09:37;65930.28;;;4.69;51.96
46614;BME280;32338;50.430;6.806;2023-02-28T15:12:04;65832.94;;;3.75;50.43
46614;BME280;32338;50.430;6.806;2023-02-28T15:14:34;65834.69;;;3.84;51.33
46614;BME280;32338;50.430;6.806;2023-02-28T15:17:08;65846.03;;;3.89;52.79
46614;BME280;32338;50.430;6.806;2023-02-28T15:19:42;65869.56;;;4.11;52.34
46614;BME280;32338;50.430;6.806;2023-02-28T15:22:16;65859.91;;;4.07;51.40
46614;BME280;32338;50.430;6.806;2023-02-28T15:24:46;65878.16;;;4.21;48.33
46614;BME280;32338;50.430;6.806;2023-02-28T15:27:16;65876.13;;;4.22;52.03
46614;BME280;32338;50.430;6.806;2023-02-28T15:29:50;65915.13;;;4.55;51.97
46614;BME280;32338;50.430;6.806;2023-02-28T15:32:24;65952.50;;;4.87;50.42
46614;BME280;32338;50.430;6.806;2023-02-28T15:34:52;65854.50;;;4.04;49.58
46614;BME280;32338;50.430;6.806;2023-02-28T15:37:28;65875.38;;;4.19;52.43
46614;BME280;32338;50.430;6.806;2023-02-28T15:39:57;65870.53;;;4.17;52.92
46614;BME280;32338;50.430;6.806;2023-02-28T15:42:28;65886.78;;;4.32;53.76
46614;BME280;32338;50.430;6.806;2023-02-28T15:44:58;65879.63;;;4.20;51.17
46614;BME280;32338;50.430;6.806;2023-02-28T15:47:26;65797.16;;;3.49;49.60
46614;BME280;32338;50.430;6.806;2023-02-28T15:49:56;65836.72;;;3.83;52.86
46614;BME280;32338;50.430;6.806;2023-02-28T15:52:27;65825.28;;;3.70;51.79
46614;BME280;32338;50.430;6.806;2023-02-28T15:54:57;65780.16;;;3.31;52.04
46614;BME280;32338;50.430;6.806;2023-02-28T15:57:26;65802.34;;;3.49;52.76
46614;BME280;32338;50.430;6.806;2023-02-28T15:59:58;65838.94;;;3.85;54.18
46614;BME280;32338;50.430;6.806;2023-02-28T16:02:31;65794.72;;;3.45;52.61
46614;BME280;32338;50.430;6.806;2023-02-28T16:05:21;65796.75;;;3.44;53.49
46614;BME280;32338;50.430;6.806;2023-02-28T16:07:53;65728.13;;;2.83;50.99
46614;BME280;32338;50.430;6.806;2023-02-28T16:10:21;65704.97;;;2.59;54.97
46614;BME280;32338;50.430;6.806;2023-02-28T16:12:53;65656.88;;;2.15;54.37
46614;BME280;32338;50.430;6.806;2023-02-28T16:15:23;65644.00;;;2.03;56.48
46614;BME280;32338;50.430;6.806;2023-02-28T16:17:51;65625.97;;;1.91;59.19
46614;BME280;32338;50.430;6.806;2023-02-28T16:20:20;65617.50;;;1.76;58.64